createdAt,value
2019-03-20T00:00:00.342Z,1025.56
2019-03-20T00:00:40.769Z,1025.61
2019-03-20T00:01:21.356Z,1025.57
2019-03-20T00:02:01.920Z,1025.55
2019-03-20T00:02:42.474Z,1025.53
2019-03-20T00:03:23.038Z,1025.51
2019-03-20T00:04:03.626Z,1025.55
2019-03-20T00:04:49.478Z,1025.58
2019-03-20T00:05:24.737Z,1025.53
2019-03-20T00:06:05.290Z,1025.53
2019-03-20T00:06:45.841Z,1025.58
2019-03-20T00:07:26.390Z,1025.53
2019-03-20T00:08:06.978Z,1025.59
2019-03-20T00:08:47.533Z,1025.59
2019-03-20T00:09:28.080Z,1025.54
2019-03-20T00:10:08.651Z,1025.54
2019-03-20T00:10:49.215Z,1025.57
2019-03-20T00:11:29.756Z,1025.49
2019-03-20T00:12:10.333Z,1025.52
2019-03-20T00:12:50.877Z,1025.53
2019-03-20T00:13:31.436Z,1025.59
2019-03-20T00:14:12.010Z,1025.57
2019-03-20T00:14:52.546Z,1025.57
2019-03-20T00:15:33.098Z,1025.61
2019-03-20T00:16:13.674Z,1025.61
2019-03-20T00:16:54.237Z,1025.61
2019-03-20T00:17:34.790Z,1025.67
2019-03-20T00:18:15.373Z,1025.66
2019-03-20T00:18:55.913Z,1025.68
2019-03-20T00:19:36.480Z,1025.66
2019-03-20T00:20:17.015Z,1025.63
2019-03-20T00:28:52.893Z,1025.64
2019-03-20T00:29:33.453Z,1025.64
2019-03-20T00:30:14.029Z,1025.59
2019-03-20T00:30:54.602Z,1025.59
2019-03-20T00:31:35.150Z,1025.62
2019-03-20T00:32:15.703Z,1025.58
2019-03-20T00:32:56.254Z,1025.63
2019-03-20T00:33:36.824Z,1025.62
2019-03-20T00:34:17.376Z,1025.62
2019-03-20T00:35:00.987Z,1025.62
2019-03-20T00:35:38.499Z,1025.66
2019-03-20T00:36:19.052Z,1025.66
2019-03-20T00:36:59.633Z,1025.68
2019-03-20T00:37:40.210Z,1025.66
2019-03-20T00:38:20.778Z,1025.69
2019-03-20T00:39:01.359Z,1025.67
2019-03-20T00:39:41.905Z,1025.66
2019-03-20T00:40:22.456Z,1025.68
2019-03-20T00:41:03.034Z,1025.65
2019-03-20T00:41:43.619Z,1025.64
2019-03-20T00:42:24.173Z,1025.69
2019-03-20T00:43:04.730Z,1025.67
2019-03-20T00:43:45.287Z,1025.69
2019-03-20T00:44:25.855Z,1025.68
2019-03-20T00:45:06.412Z,1025.7
2019-03-20T00:45:46.964Z,1025.74
2019-03-20T00:46:27.531Z,1025.72
2019-03-20T00:47:08.084Z,1025.74
2019-03-20T00:47:48.649Z,1025.74
2019-03-20T00:48:29.200Z,1025.81
2019-03-20T00:49:09.756Z,1025.77
2019-03-20T00:49:50.319Z,1025.7
2019-03-20T00:50:30.906Z,1025.73
2019-03-20T00:51:11.503Z,1025.71
2019-03-20T00:51:52.069Z,1025.71
2019-03-20T00:52:32.624Z,1025.7
2019-03-20T00:53:13.174Z,1025.73
2019-03-20T00:53:53.744Z,1025.76
2019-03-20T00:54:34.307Z,1025.72
2019-03-20T00:55:14.865Z,1025.76
2019-03-20T00:55:55.450Z,1025.72
2019-03-20T00:56:36.455Z,1025.71
2019-03-20T00:57:17.042Z,1025.67
2019-03-20T00:57:57.594Z,1025.69
2019-03-20T00:58:39.717Z,1025.66
2019-03-20T00:59:18.734Z,1025.66
2019-03-20T00:59:59.298Z,1025.67
2019-03-20T01:00:39.867Z,1025.66
2019-03-20T01:01:20.409Z,1025.72
2019-03-20T01:02:00.963Z,1025.76
2019-03-20T01:02:41.531Z,1025.72
2019-03-20T01:03:22.128Z,1025.8
2019-03-20T01:04:02.695Z,1025.75
2019-03-20T01:04:43.275Z,1025.77
2019-03-20T01:05:23.860Z,1025.74
2019-03-20T01:06:04.424Z,1025.76
2019-03-20T01:06:44.988Z,1025.78
2019-03-20T01:07:25.554Z,1025.77
2019-03-20T01:08:06.099Z,1025.74
2019-03-20T01:08:46.682Z,1025.76
2019-03-20T01:09:27.262Z,1025.72
2019-03-20T01:10:07.844Z,1025.78
2019-03-20T01:10:48.405Z,1025.74
2019-03-20T01:11:29.035Z,1025.75
2019-03-20T01:12:09.619Z,1025.73
2019-03-20T01:12:50.189Z,1025.71
2019-03-20T01:13:30.748Z,1025.71
2019-03-20T01:14:11.331Z,1025.72
2019-03-20T01:14:51.941Z,1025.77
2019-03-20T01:15:32.515Z,1025.75
2019-03-20T01:16:13.118Z,1025.72
2019-03-20T01:16:53.693Z,1025.73
2019-03-20T01:17:34.249Z,1025.76
2019-03-20T01:18:14.824Z,1025.75
2019-03-20T01:18:55.381Z,1025.72
2019-03-20T01:19:35.978Z,1025.7
2019-03-20T01:20:16.546Z,1025.7
2019-03-20T01:20:57.099Z,1025.71
2019-03-20T01:21:37.692Z,1025.72
2019-03-20T01:22:18.241Z,1025.76
2019-03-20T01:22:58.809Z,1025.75
2019-03-20T01:23:39.357Z,1025.74
2019-03-20T01:24:19.920Z,1025.78
2019-03-20T01:25:00.535Z,1025.77
2019-03-20T01:25:41.008Z,1025.78
2019-03-20T01:26:21.568Z,1025.78
2019-03-20T01:27:02.166Z,1025.76
2019-03-20T01:27:42.718Z,1025.77
2019-03-20T01:28:23.294Z,1025.76
2019-03-20T01:29:03.858Z,1025.74
2019-03-20T01:29:44.414Z,1025.73
2019-03-20T01:30:24.983Z,1025.76
2019-03-20T01:31:05.553Z,1025.74
2019-03-20T01:31:46.139Z,1025.74
2019-03-20T01:32:26.693Z,1025.71
2019-03-20T01:33:07.255Z,1025.72
2019-03-20T01:33:47.827Z,1025.74
2019-03-20T01:34:28.389Z,1025.74
2019-03-20T01:35:09.002Z,1025.75
2019-03-20T01:35:49.551Z,1025.74
2019-03-20T01:36:30.106Z,1025.75
2019-03-20T01:37:10.686Z,1025.77
2019-03-20T01:37:51.239Z,1025.75
2019-03-20T01:38:31.796Z,1025.76
2019-03-20T01:39:12.365Z,1025.72
2019-03-20T01:39:52.952Z,1025.74
2019-03-20T01:40:33.560Z,1025.71
2019-03-20T01:41:14.070Z,1025.74
2019-03-20T01:41:54.625Z,1025.74
2019-03-20T01:42:35.186Z,1025.72
2019-03-20T01:43:15.751Z,1025.78
2019-03-20T01:43:56.309Z,1025.77
2019-03-20T01:44:36.883Z,1025.78
2019-03-20T01:45:17.465Z,1025.79
2019-03-20T01:45:58.053Z,1025.73
2019-03-20T01:46:38.560Z,1025.74
2019-03-20T01:47:19.121Z,1025.74
2019-03-20T01:47:59.680Z,1025.71
2019-03-20T01:48:40.255Z,1025.72
2019-03-20T01:49:21.685Z,1025.7
2019-03-20T01:50:02.243Z,1025.69
2019-03-20T01:50:42.834Z,1025.77
2019-03-20T01:51:23.353Z,1025.74
2019-03-20T01:52:03.907Z,1025.71
2019-03-20T01:52:44.450Z,1025.73
2019-03-20T01:53:24.999Z,1025.76
2019-03-20T01:54:05.559Z,1025.73
2019-03-20T01:54:46.116Z,1025.72
2019-03-20T01:55:26.688Z,1025.77
2019-03-20T01:56:07.220Z,1025.72
2019-03-20T01:56:48.550Z,1025.77
2019-03-20T01:57:29.102Z,1025.77
2019-03-20T01:58:09.663Z,1025.81
2019-03-20T01:58:50.225Z,1025.82
2019-03-20T01:59:30.794Z,1025.81
2019-03-20T02:00:11.332Z,1025.82
2019-03-20T02:00:51.881Z,1025.84
2019-03-20T02:01:32.424Z,1025.86
2019-03-20T02:02:13.023Z,1025.82
2019-03-20T02:02:53.575Z,1025.82
2019-03-20T02:03:34.131Z,1025.82
2019-03-20T02:04:14.688Z,1025.82
2019-03-20T02:04:55.256Z,1025.79
2019-03-20T02:05:36.653Z,1025.79
2019-03-20T02:06:16.389Z,1025.78
2019-03-20T02:06:56.980Z,1025.82
2019-03-20T02:07:37.559Z,1025.83
2019-03-20T02:08:18.127Z,1025.82
2019-03-20T02:08:58.700Z,1025.83
2019-03-20T02:09:39.260Z,1025.83
2019-03-20T02:10:19.820Z,1025.84
2019-03-20T02:11:00.392Z,1025.83
2019-03-20T02:11:40.944Z,1025.79
2019-03-20T02:12:21.495Z,1025.85
2019-03-20T02:13:02.053Z,1025.83
2019-03-20T02:13:42.637Z,1025.85
2019-03-20T02:14:23.208Z,1025.85
2019-03-20T02:15:03.754Z,1025.81
2019-03-20T02:15:44.319Z,1025.82
2019-03-20T02:16:24.861Z,1025.79
2019-03-20T02:17:05.439Z,1025.8
2019-03-20T02:17:46.001Z,1025.87
2019-03-20T02:18:26.567Z,1025.89
2019-03-20T02:19:07.128Z,1025.87
2019-03-20T02:19:47.678Z,1025.89
2019-03-20T02:20:28.233Z,1025.91
2019-03-20T02:21:08.792Z,1025.9
2019-03-20T02:21:49.344Z,1025.94
2019-03-20T02:22:29.899Z,1025.93
2019-03-20T02:23:10.450Z,1025.94
2019-03-20T02:23:51.013Z,1025.93
2019-03-20T02:24:31.573Z,1025.97
2019-03-20T02:25:12.117Z,1025.92
2019-03-20T02:25:52.661Z,1025.96
2019-03-20T02:26:33.225Z,1025.94
2019-03-20T02:27:13.775Z,1025.96
2019-03-20T02:27:54.372Z,1025.97
2019-03-20T02:28:34.925Z,1025.96
2019-03-20T02:29:15.488Z,1025.97
2019-03-20T02:29:56.041Z,1026
2019-03-20T02:30:36.594Z,1025.98
2019-03-20T02:31:17.153Z,1026
2019-03-20T02:31:57.697Z,1025.98
2019-03-20T02:32:38.270Z,1025.99
2019-03-20T02:33:18.829Z,1026
2019-03-20T02:33:59.392Z,1025.96
2019-03-20T02:34:39.935Z,1025.99
2019-03-20T02:35:20.511Z,1026
2019-03-20T02:36:01.052Z,1025.99
2019-03-20T02:36:41.624Z,1025.99
2019-03-20T02:37:22.188Z,1025.98
2019-03-20T02:38:02.741Z,1025.97
2019-03-20T02:38:43.298Z,1025.98
2019-03-20T02:39:23.862Z,1026
2019-03-20T02:40:04.439Z,1025.99
2019-03-20T02:40:45.000Z,1025.97
2019-03-20T02:41:25.549Z,1025.96
2019-03-20T02:42:06.105Z,1025.96
2019-03-20T02:42:46.686Z,1025.94
2019-03-20T02:43:27.233Z,1025.93
2019-03-20T02:44:07.797Z,1025.89
2019-03-20T02:44:48.363Z,1025.96
2019-03-20T02:45:28.932Z,1025.96
2019-03-20T02:46:09.484Z,1025.94
2019-03-20T02:46:50.043Z,1025.98
2019-03-20T02:47:30.586Z,1025.9
2019-03-20T02:48:11.135Z,1025.94
2019-03-20T02:48:51.695Z,1025.93
2019-03-20T02:49:32.272Z,1025.92
2019-03-20T02:50:12.831Z,1025.95
2019-03-20T02:50:53.373Z,1025.92
2019-03-20T02:51:33.932Z,1025.95
2019-03-20T02:52:14.479Z,1025.94
2019-03-20T02:52:55.026Z,1025.91
2019-03-20T02:53:35.571Z,1025.91
2019-03-20T02:54:16.133Z,1025.96
2019-03-20T02:54:56.681Z,1025.92
2019-03-20T02:55:37.254Z,1025.95
2019-03-20T02:56:17.814Z,1025.96
2019-03-20T02:56:58.379Z,1025.97
2019-03-20T02:57:38.955Z,1025.93
2019-03-20T02:58:19.523Z,1025.99
2019-03-20T02:59:00.077Z,1025.97
2019-03-20T02:59:40.653Z,1025.93
2019-03-20T03:00:21.234Z,1025.98
2019-03-20T03:01:01.797Z,1025.92
2019-03-20T03:01:42.352Z,1025.96
2019-03-20T03:02:22.898Z,1025.96
2019-03-20T03:03:03.450Z,1026.01
2019-03-20T03:03:44.005Z,1026.03
2019-03-20T03:04:24.578Z,1026.03
2019-03-20T03:05:05.131Z,1026.03
2019-03-20T03:05:45.693Z,1026.05
2019-03-20T03:06:26.260Z,1026.05
2019-03-20T03:07:06.827Z,1026.09
2019-03-20T03:07:47.374Z,1026.06
2019-03-20T03:08:27.933Z,1026.08
2019-03-20T03:09:08.485Z,1026.08
2019-03-20T03:09:49.029Z,1026.06
2019-03-20T03:10:29.592Z,1026.06
2019-03-20T03:11:10.150Z,1026.11
2019-03-20T03:11:50.691Z,1026.08
2019-03-20T03:12:31.256Z,1026.04
2019-03-20T03:13:11.852Z,1026.08
2019-03-20T03:13:52.412Z,1026.09
2019-03-20T03:14:32.978Z,1026.1
2019-03-20T03:15:13.535Z,1026.06
2019-03-20T03:15:54.105Z,1026.07
2019-03-20T03:16:34.655Z,1026.08
2019-03-20T03:17:15.212Z,1026.07
2019-03-20T03:17:55.783Z,1026.1
2019-03-20T03:18:36.351Z,1026.07
2019-03-20T03:19:16.916Z,1026.08
2019-03-20T03:19:57.490Z,1026.02
2019-03-20T03:20:38.037Z,1026.07
2019-03-20T03:21:18.601Z,1026.06
2019-03-20T03:21:59.150Z,1026.08
2019-03-20T03:22:39.718Z,1026.05
2019-03-20T03:23:20.274Z,1026.05
2019-03-20T03:24:00.841Z,1026.09
2019-03-20T03:24:41.409Z,1026.04
2019-03-20T03:25:21.960Z,1026.09
2019-03-20T03:26:02.529Z,1026.11
2019-03-20T03:26:43.082Z,1026.15
2019-03-20T03:27:23.639Z,1026.12
2019-03-20T03:28:04.196Z,1026.08
2019-03-20T03:28:44.770Z,1026.1
2019-03-20T03:29:25.339Z,1026.1
2019-03-20T03:30:05.907Z,1026.12
2019-03-20T03:30:46.468Z,1026.09
2019-03-20T03:31:27.022Z,1026.08
2019-03-20T03:32:07.598Z,1026.09
2019-03-20T03:32:48.182Z,1026.07
2019-03-20T03:33:28.739Z,1026.07
2019-03-20T03:34:09.281Z,1026.09
2019-03-20T03:34:49.857Z,1026.12
2019-03-20T03:35:30.456Z,1026.1
2019-03-20T03:36:20.871Z,1026.06
2019-03-20T03:36:51.595Z,1026.03
2019-03-20T03:37:32.207Z,1026.04
2019-03-20T03:38:12.769Z,1026.05
2019-03-20T03:38:53.316Z,1026.09
2019-03-20T03:39:33.860Z,1026.07
2019-03-20T03:40:14.408Z,1026.1
2019-03-20T03:40:54.957Z,1026.1
2019-03-20T03:41:35.532Z,1026.13
2019-03-20T03:42:16.099Z,1026.14
2019-03-20T03:42:56.873Z,1026.13
2019-03-20T03:43:38.439Z,1026.12
2019-03-20T03:44:18.999Z,1026.1
2019-03-20T03:44:59.549Z,1026.12
2019-03-20T03:45:40.102Z,1026.15
2019-03-20T03:46:20.669Z,1026.15
2019-03-20T03:47:01.232Z,1026.17
2019-03-20T03:47:41.795Z,1026.18
2019-03-20T03:48:22.352Z,1026.18
2019-03-20T03:49:02.905Z,1026.18
2019-03-20T03:49:43.459Z,1026.2
2019-03-20T03:50:24.028Z,1026.16
2019-03-20T03:51:04.584Z,1026.09
2019-03-20T03:51:45.136Z,1026.15
2019-03-20T03:52:25.711Z,1026.11
2019-03-20T03:53:06.270Z,1026.2
2019-03-20T03:53:46.832Z,1026.19
2019-03-20T03:54:27.392Z,1026.18
2019-03-20T03:55:07.949Z,1026.21
2019-03-20T03:55:48.505Z,1026.22
2019-03-20T03:56:29.055Z,1026.24
2019-03-20T03:57:10.087Z,1026.24
2019-03-20T03:57:50.649Z,1026.23
2019-03-20T03:58:32.811Z,1026.27
2019-03-20T03:59:11.778Z,1026.23
2019-03-20T03:59:52.335Z,1026.28
2019-03-20T04:00:32.878Z,1026.26
2019-03-20T04:01:13.424Z,1026.23
2019-03-20T04:01:53.978Z,1026.23
2019-03-20T04:02:34.594Z,1026.25
2019-03-20T04:03:15.121Z,1026.24
2019-03-20T04:03:55.693Z,1026.21
2019-03-20T04:04:36.278Z,1026.21
2019-03-20T04:05:16.842Z,1026.2
2019-03-20T04:05:57.384Z,1026.21
2019-03-20T04:06:37.938Z,1026.2
2019-03-20T04:07:18.492Z,1026.23
2019-03-20T04:07:59.057Z,1026.2
2019-03-20T04:08:39.616Z,1026.18
2019-03-20T04:09:20.161Z,1026.21
2019-03-20T04:10:00.717Z,1026.24
2019-03-20T04:10:41.285Z,1026.22
2019-03-20T04:11:21.852Z,1026.26
2019-03-20T04:12:02.412Z,1026.26
2019-03-20T04:12:42.977Z,1026.28
2019-03-20T04:13:23.541Z,1026.25
2019-03-20T04:14:04.099Z,1026.27
2019-03-20T04:14:44.689Z,1026.31
2019-03-20T04:15:25.222Z,1026.33
2019-03-20T04:16:05.890Z,1026.36
2019-03-20T04:16:46.450Z,1026.35
2019-03-20T04:17:27.005Z,1026.37
2019-03-20T04:18:07.560Z,1026.37
2019-03-20T04:18:48.114Z,1026.42
2019-03-20T04:19:28.663Z,1026.45
2019-03-20T04:20:09.215Z,1026.48
2019-03-20T04:20:49.772Z,1026.44
2019-03-20T04:21:30.328Z,1026.42
2019-03-20T04:22:10.870Z,1026.42
2019-03-20T04:22:51.432Z,1026.39
2019-03-20T04:23:31.993Z,1026.45
2019-03-20T04:24:12.557Z,1026.38
2019-03-20T04:24:53.106Z,1026.43
2019-03-20T04:25:33.680Z,1026.46
2019-03-20T04:26:14.240Z,1026.47
2019-03-20T04:26:54.805Z,1026.48
2019-03-20T04:27:35.354Z,1026.44
2019-03-20T04:28:15.915Z,1026.44
2019-03-20T04:28:56.475Z,1026.45
2019-03-20T04:29:37.041Z,1026.39
2019-03-20T04:30:17.615Z,1026.37
2019-03-20T04:30:58.150Z,1026.44
2019-03-20T04:31:38.714Z,1026.43
2019-03-20T04:32:19.286Z,1026.45
2019-03-20T04:32:59.852Z,1026.43
2019-03-20T04:33:40.393Z,1026.44
2019-03-20T04:34:20.965Z,1026.47
2019-03-20T04:35:01.517Z,1026.46
2019-03-20T04:35:42.089Z,1026.48
2019-03-20T04:36:22.652Z,1026.53
2019-03-20T04:37:03.192Z,1026.53
2019-03-20T04:37:43.750Z,1026.51
2019-03-20T04:38:24.288Z,1026.54
2019-03-20T04:39:04.854Z,1026.54
2019-03-20T04:39:45.399Z,1026.48
2019-03-20T04:40:25.952Z,1026.52
2019-03-20T04:41:06.507Z,1026.53
2019-03-20T04:41:47.085Z,1026.46
2019-03-20T04:42:27.635Z,1026.44
2019-03-20T04:43:08.193Z,1026.5
2019-03-20T04:43:48.737Z,1026.47
2019-03-20T04:44:29.294Z,1026.45
2019-03-20T04:45:12.245Z,1026.46
2019-03-20T04:45:50.398Z,1026.49
2019-03-20T04:46:30.942Z,1026.52
2019-03-20T04:47:11.497Z,1026.49
2019-03-20T04:47:52.057Z,1026.46
2019-03-20T04:48:32.616Z,1026.48
2019-03-20T04:49:13.180Z,1026.49
2019-03-20T04:49:53.804Z,1026.48
2019-03-20T04:50:34.352Z,1026.53
2019-03-20T04:51:14.906Z,1026.5
2019-03-20T04:51:55.478Z,1026.52
2019-03-20T04:52:36.044Z,1026.52
2019-03-20T04:53:16.608Z,1026.51
2019-03-20T04:53:57.152Z,1026.48
2019-03-20T04:54:37.713Z,1026.52
2019-03-20T04:55:18.270Z,1026.52
2019-03-20T04:55:58.835Z,1026.52
2019-03-20T04:56:39.866Z,1026.45
2019-03-20T04:57:20.445Z,1026.46
2019-03-20T04:58:01.000Z,1026.5
2019-03-20T04:58:41.547Z,1026.42
2019-03-20T04:59:22.123Z,1026.45
2019-03-20T05:00:02.687Z,1026.44
2019-03-20T05:00:43.247Z,1026.49
2019-03-20T05:01:23.803Z,1026.47
2019-03-20T05:02:04.367Z,1026.51
2019-03-20T05:02:44.924Z,1026.55
2019-03-20T05:03:25.488Z,1026.52
2019-03-20T05:04:06.035Z,1026.51
2019-03-20T05:04:46.596Z,1026.55
2019-03-20T05:05:27.137Z,1026.59
2019-03-20T05:06:07.739Z,1026.57
2019-03-20T05:06:58.156Z,1026.56
2019-03-20T05:07:28.855Z,1026.56
2019-03-20T05:08:09.415Z,1026.55
2019-03-20T05:08:49.997Z,1026.55
2019-03-20T05:09:30.553Z,1026.57
2019-03-20T05:10:11.100Z,1026.54
2019-03-20T05:10:52.362Z,1026.56
2019-03-20T05:11:32.923Z,1026.52
2019-03-20T05:12:13.485Z,1026.55
2019-03-20T05:12:54.042Z,1026.57
2019-03-20T05:13:34.609Z,1026.58
2019-03-20T05:14:15.156Z,1026.59
2019-03-20T05:14:55.718Z,1026.61
2019-03-20T05:15:36.315Z,1026.58
2019-03-20T05:16:16.864Z,1026.58
2019-03-20T05:16:57.444Z,1026.64
2019-03-20T05:17:38.007Z,1026.58
2019-03-20T05:18:18.563Z,1026.6
2019-03-20T05:18:59.114Z,1026.62
2019-03-20T05:19:39.689Z,1026.6
2019-03-20T05:20:20.235Z,1026.59
2019-03-20T05:21:00.814Z,1026.62
2019-03-20T05:21:41.370Z,1026.58
2019-03-20T05:22:21.944Z,1026.59
2019-03-20T05:23:02.496Z,1026.6
2019-03-20T05:23:43.047Z,1026.6
2019-03-20T05:24:23.660Z,1026.59
2019-03-20T05:25:04.226Z,1026.64
2019-03-20T05:25:44.791Z,1026.62
2019-03-20T05:26:25.368Z,1026.59
2019-03-20T05:27:05.955Z,1026.64
2019-03-20T05:27:46.512Z,1026.66
2019-03-20T05:28:27.064Z,1026.69
2019-03-20T05:29:07.628Z,1026.67
2019-03-20T05:29:48.180Z,1026.7
2019-03-20T05:30:28.732Z,1026.71
2019-03-20T05:31:09.300Z,1026.73
2019-03-20T05:31:49.883Z,1026.74
2019-03-20T05:32:30.447Z,1026.74
2019-03-20T05:33:11.008Z,1026.74
2019-03-20T05:33:51.616Z,1026.78
2019-03-20T05:34:32.167Z,1026.76
2019-03-20T05:35:12.720Z,1026.76
2019-03-20T05:35:53.271Z,1026.81
2019-03-20T05:36:33.822Z,1026.78
2019-03-20T05:37:14.376Z,1026.8
2019-03-20T05:37:54.934Z,1026.8
2019-03-20T05:38:35.474Z,1026.84
2019-03-20T05:39:16.073Z,1026.8
2019-03-20T05:39:56.571Z,1026.8
2019-03-20T05:40:37.132Z,1026.87
2019-03-20T05:41:17.694Z,1026.87
2019-03-20T05:41:58.256Z,1026.87
2019-03-20T05:42:38.816Z,1026.91
2019-03-20T05:43:19.380Z,1026.93
2019-03-20T05:43:59.933Z,1026.96
2019-03-20T05:44:40.507Z,1026.95
2019-03-20T05:45:21.085Z,1026.94
2019-03-20T05:46:01.689Z,1026.92
2019-03-20T05:46:42.240Z,1026.89
2019-03-20T05:47:22.823Z,1026.9
2019-03-20T05:48:03.388Z,1026.89
2019-03-20T05:48:43.938Z,1026.88
2019-03-20T05:49:24.577Z,1026.93
2019-03-20T05:50:05.297Z,1026.91
2019-03-20T05:50:46.047Z,1026.96
2019-03-20T05:51:26.570Z,1026.95
2019-03-20T05:52:07.290Z,1026.94
2019-03-20T05:52:47.871Z,1026.97
2019-03-20T05:53:28.414Z,1026.96
2019-03-20T05:54:08.992Z,1026.97
2019-03-20T05:54:49.550Z,1026.98
2019-03-20T05:55:30.166Z,1026.95
2019-03-20T05:56:10.738Z,1026.95
2019-03-20T05:56:51.326Z,1026.97
2019-03-20T05:57:31.954Z,1026.95
2019-03-20T05:58:12.766Z,1026.96
2019-03-20T05:58:53.394Z,1026.94
2019-03-20T05:59:33.989Z,1026.94
2019-03-20T06:00:14.643Z,1026.94
2019-03-20T06:00:55.272Z,1026.97
2019-03-20T06:01:37.577Z,1026.97
2019-03-20T06:02:18.342Z,1026.97
2019-03-20T06:02:59.088Z,1026.97
2019-03-20T06:03:39.675Z,1026.96
2019-03-20T06:04:20.248Z,1026.95
2019-03-20T06:05:00.820Z,1027.01
2019-03-20T06:05:41.379Z,1026.95
2019-03-20T06:06:21.932Z,1026.97
2019-03-20T06:07:02.516Z,1026.96
2019-03-20T06:07:43.076Z,1026.99
2019-03-20T06:08:23.664Z,1026.95
2019-03-20T06:09:04.248Z,1026.97
2019-03-20T06:09:44.828Z,1026.95
2019-03-20T06:10:25.416Z,1026.95
2019-03-20T06:11:06.004Z,1026.99
2019-03-20T06:11:46.622Z,1026.95
2019-03-20T06:12:27.192Z,1026.93
2019-03-20T06:13:07.785Z,1026.93
2019-03-20T06:13:48.340Z,1026.91
2019-03-20T06:14:28.897Z,1026.92
2019-03-20T06:15:09.483Z,1026.95
2019-03-20T06:15:50.053Z,1026.96
2019-03-20T06:16:30.609Z,1026.99
2019-03-20T06:17:11.163Z,1027.01
2019-03-20T06:17:51.712Z,1027.05
2019-03-20T06:18:32.279Z,1027
2019-03-20T06:19:12.834Z,1027.09
2019-03-20T06:19:53.391Z,1027.02
2019-03-20T06:20:34.103Z,1027.08
2019-03-20T06:21:14.520Z,1027.07
2019-03-20T06:21:55.115Z,1027.04
2019-03-20T06:22:35.668Z,1027.07
2019-03-20T06:23:16.267Z,1027.05
2019-03-20T06:23:56.811Z,1027.03
2019-03-20T06:24:37.379Z,1027.03
2019-03-20T06:25:21.055Z,1027.08
2019-03-20T06:25:58.504Z,1027.04
2019-03-20T06:26:39.073Z,1027.06
2019-03-20T06:27:19.638Z,1027.08
2019-03-20T06:28:00.198Z,1027.1
2019-03-20T06:28:40.776Z,1027.07
2019-03-20T06:29:21.331Z,1027.06
2019-03-20T06:30:01.883Z,1027.1
2019-03-20T06:30:42.445Z,1027.12
2019-03-20T06:31:23.046Z,1027.09
2019-03-20T06:32:03.600Z,1027.1
2019-03-20T06:32:44.205Z,1027.15
2019-03-20T06:33:25.089Z,1027.11
2019-03-20T06:34:05.686Z,1027.16
2019-03-20T06:34:46.238Z,1027.17
2019-03-20T06:35:26.803Z,1027.22
2019-03-20T06:36:07.369Z,1027.16
2019-03-20T06:36:48.081Z,1027.2
2019-03-20T06:37:32.655Z,1027.21
2019-03-20T06:38:09.346Z,1027.22
2019-03-20T06:38:49.917Z,1027.22
2019-03-20T06:39:30.529Z,1027.21
2019-03-20T06:40:11.093Z,1027.21
2019-03-20T06:40:51.664Z,1027.22
2019-03-20T06:41:32.225Z,1027.21
2019-03-20T06:42:12.793Z,1027.28
2019-03-20T06:42:55.231Z,1027.29
2019-03-20T06:43:33.959Z,1027.31
2019-03-20T06:44:14.528Z,1027.29
2019-03-20T06:44:55.082Z,1027.33
2019-03-20T06:45:35.632Z,1027.32
2019-03-20T06:46:16.194Z,1027.33
2019-03-20T06:46:56.759Z,1027.32
2019-03-20T06:47:37.342Z,1027.31
2019-03-20T06:48:17.888Z,1027.37
2019-03-20T06:48:58.446Z,1027.37
2019-03-20T06:49:39.048Z,1027.36
2019-03-20T06:50:19.601Z,1027.37
2019-03-20T06:51:00.182Z,1027.4
2019-03-20T06:51:40.754Z,1027.39
2019-03-20T06:52:21.316Z,1027.37
2019-03-20T06:53:01.898Z,1027.39
2019-03-20T06:53:42.452Z,1027.38
2019-03-20T06:54:23.006Z,1027.36
2019-03-20T06:55:03.582Z,1027.4
2019-03-20T06:55:44.178Z,1027.47
2019-03-20T06:56:24.753Z,1027.45
2019-03-20T06:57:05.293Z,1027.46
2019-03-20T06:57:45.853Z,1027.41
2019-03-20T06:58:26.415Z,1027.44
2019-03-20T06:59:07.023Z,1027.37
2019-03-20T06:59:47.574Z,1027.44
2019-03-20T07:00:28.173Z,1027.48
2019-03-20T07:01:08.746Z,1027.48
2019-03-20T07:01:49.297Z,1027.44
2019-03-20T07:02:29.861Z,1027.49
2019-03-20T07:03:10.406Z,1027.52
2019-03-20T07:03:50.957Z,1027.51
2019-03-20T07:04:31.502Z,1027.54
2019-03-20T07:05:12.069Z,1027.59
2019-03-20T07:05:52.632Z,1027.64
2019-03-20T07:06:33.182Z,1027.67
2019-03-20T07:07:15.378Z,1027.63
2019-03-20T07:07:54.285Z,1027.62
2019-03-20T07:08:34.875Z,1027.63
2019-03-20T07:09:15.446Z,1027.6
2019-03-20T07:09:56.010Z,1027.62
2019-03-20T07:10:36.572Z,1027.6
2019-03-20T07:11:17.192Z,1027.64
2019-03-20T07:11:57.754Z,1027.66
2019-03-20T07:12:38.314Z,1027.74
2019-03-20T07:13:18.869Z,1027.72
2019-03-20T07:13:59.427Z,1027.78
2019-03-20T07:14:40.009Z,1027.79
2019-03-20T07:15:20.576Z,1027.74
2019-03-20T07:16:01.137Z,1027.72
2019-03-20T07:16:41.708Z,1027.69
2019-03-20T07:17:22.317Z,1027.68
2019-03-20T07:18:02.891Z,1027.68
2019-03-20T07:18:43.500Z,1027.64
2019-03-20T07:19:24.053Z,1027.73
2019-03-20T07:20:04.614Z,1027.71
2019-03-20T07:20:45.161Z,1027.66
2019-03-20T07:21:25.719Z,1027.67
2019-03-20T07:22:06.267Z,1027.67
2019-03-20T07:22:46.828Z,1027.67
2019-03-20T07:23:27.414Z,1027.69
2019-03-20T07:24:07.986Z,1027.68
2019-03-20T07:24:48.550Z,1027.69
2019-03-20T07:25:29.148Z,1027.7
2019-03-20T07:26:09.721Z,1027.72
2019-03-20T07:26:50.318Z,1027.73
2019-03-20T07:27:30.875Z,1027.78
2019-03-20T07:28:11.459Z,1027.79
2019-03-20T07:28:52.068Z,1027.84
2019-03-20T07:29:32.639Z,1027.87
2019-03-20T07:30:13.199Z,1027.87
2019-03-20T07:30:53.824Z,1027.87
2019-03-20T07:31:34.870Z,1027.91
2019-03-20T07:32:15.430Z,1027.94
2019-03-20T07:32:56.062Z,1027.96
2019-03-20T07:33:36.894Z,1027.93
2019-03-20T07:34:17.785Z,1028.01
2019-03-20T07:34:58.615Z,1028
2019-03-20T07:35:39.401Z,1028.05
2019-03-20T07:36:20.089Z,1028.03
2019-03-20T07:37:00.843Z,1028.03
2019-03-20T07:37:41.430Z,1028.03
2019-03-20T07:38:22.031Z,1028.06
2019-03-20T07:39:02.596Z,1028.08
2019-03-20T07:39:43.205Z,1028.08
2019-03-20T07:40:23.792Z,1028.08
2019-03-20T07:41:04.354Z,1028.07
2019-03-20T07:41:44.910Z,1028.09
2019-03-20T07:42:25.512Z,1028.11
2019-03-20T07:43:08.918Z,1028.12
2019-03-20T07:43:46.668Z,1028.13
2019-03-20T07:44:27.293Z,1028.07
2019-03-20T07:45:07.872Z,1028.05
2019-03-20T07:45:48.459Z,1028.07
2019-03-20T07:46:29.002Z,1028.08
2019-03-20T07:47:09.568Z,1028.06
2019-03-20T07:47:50.712Z,1028.06
2019-03-20T07:48:31.297Z,1028.07
2019-03-20T07:49:11.961Z,1028.04
2019-03-20T07:49:52.606Z,1028.05
2019-03-20T07:50:33.201Z,1028.05
2019-03-20T07:51:13.778Z,1028.11
2019-03-20T07:51:54.404Z,1028.12
2019-03-20T07:52:35.124Z,1028.09
2019-03-20T07:53:15.710Z,1028.15
2019-03-20T07:53:56.350Z,1028.15
2019-03-20T07:54:36.918Z,1028.15
2019-03-20T07:55:17.535Z,1028.19
2019-03-20T07:55:58.104Z,1028.18
2019-03-20T07:56:38.675Z,1028.18
2019-03-20T07:57:19.730Z,1028.2
2019-03-20T07:58:00.308Z,1028.27
2019-03-20T07:58:40.918Z,1028.31
2019-03-20T07:59:21.539Z,1028.34
2019-03-20T08:00:02.136Z,1028.31
2019-03-20T08:00:42.737Z,1028.3
2019-03-20T08:01:23.286Z,1028.25
2019-03-20T08:02:03.829Z,1028.27
2019-03-20T08:02:44.418Z,1028.22
2019-03-20T08:03:24.993Z,1028.22
2019-03-20T08:04:05.577Z,1028.23
2019-03-20T08:04:46.154Z,1028.25
2019-03-20T08:05:29.342Z,1028.24
2019-03-20T08:06:07.305Z,1028.26
2019-03-20T08:06:47.865Z,1028.28
2019-03-20T08:07:28.445Z,1028.3
2019-03-20T08:08:09.014Z,1028.27
2019-03-20T08:08:49.597Z,1028.3
2019-03-20T08:09:30.313Z,1028.3
2019-03-20T08:10:10.879Z,1028.3
2019-03-20T08:10:51.460Z,1028.31
2019-03-20T08:11:32.128Z,1028.3
2019-03-20T08:12:12.822Z,1028.28
2019-03-20T08:12:53.829Z,1028.27
2019-03-20T08:13:34.948Z,1028.25
2019-03-20T08:14:15.956Z,1028.28
2019-03-20T08:14:57.049Z,1028.28
2019-03-20T08:15:37.922Z,1028.3
2019-03-20T08:16:18.530Z,1028.3
2019-03-20T08:16:59.114Z,1028.29
2019-03-20T08:17:39.687Z,1028.27
2019-03-20T08:18:20.265Z,1028.3
2019-03-20T08:19:00.834Z,1028.32
2019-03-20T08:19:41.400Z,1028.33
2019-03-20T08:20:21.995Z,1028.31